KAL2126 RJAA-RKPC
Flight info
| Callsign | KAL2126 |
|---|---|
| Flight time | N/A |
| Altitude | 34000 |
| Route | REDEK2 REDEK Y60 HABAR Y602 MARCO Y28 DGC A595 SAMDO Y677 TAMNA TAMNA2M |
| Aircraft | A321/M-SDE3FGHIRWY/LB1 |
Departure
| Time | 2026-05-04 12:28 |
|---|---|
| Airport | Narita International Airport (RJAA) |
Arrival
| Time | N/A |
|---|---|
| Airport | Jeju International Airport (RKPC) |
| Time | Latitude | Longitude | Altitude | Speed | Heading |
|---|---|---|---|---|---|
| 2026-05-04 12:04 | 35.76706 | 140.38323 | 144 ft | 0 kts | 102° |
| 2026-05-04 12:12 | 35.76708 | 140.38316 | 144 ft | 4 kts | 103° |
| 2026-05-04 12:12 | 35.76714 | 140.38284 | 144 ft | 4 kts | 107° |
| 2026-05-04 12:12 | 35.76723 | 140.38253 | 144 ft | 4 kts | 115° |
| 2026-05-04 12:13 | 35.76737 | 140.38226 | 144 ft | 4 kts | 146° |
| 2026-05-04 12:14 | 35.76751 | 140.38220 | 144 ft | 0 kts | 207° |
| 2026-05-04 12:16 | 35.76747 | 140.38217 | 144 ft | 1 kts | 207° |
| 2026-05-04 12:16 | 35.76727 | 140.38204 | 144 ft | 8 kts | 207° |
| 2026-05-04 12:16 | 35.76657 | 140.38161 | 144 ft | 11 kts | 206° |
| 2026-05-04 12:17 | 35.76583 | 140.38111 | 144 ft | 6 kts | 212° |
| 2026-05-04 12:17 | 35.76559 | 140.38093 | 144 ft | 8 kts | 210° |
| 2026-05-04 12:17 | 35.76509 | 140.38060 | 144 ft | 8 kts | 208° |
| 2026-05-04 12:17 | 35.76470 | 140.38026 | 144 ft | 7 kts | 229° |
| 2026-05-04 12:18 | 35.76445 | 140.37990 | 143 ft | 4 kts | 231° |
| 2026-05-04 12:18 | 35.76410 | 140.37965 | 143 ft | 7 kts | 179° |
| 2026-05-04 12:18 | 35.76337 | 140.38010 | 144 ft | 14 kts | 150° |
| 2026-05-04 12:18 | 35.76255 | 140.38070 | 144 ft | 2 kts | 149° |
| 2026-05-04 12:19 | 35.76249 | 140.38074 | 144 ft | 5 kts | 150° |
| 2026-05-04 12:19 | 35.76176 | 140.38126 | 144 ft | 14 kts | 149° |
| 2026-05-04 12:19 | 35.76101 | 140.38180 | 144 ft | 10 kts | 150° |
| 2026-05-04 12:20 | 35.76046 | 140.38220 | 144 ft | 8 kts | 149° |
| 2026-05-04 12:20 | 35.75986 | 140.38263 | 144 ft | 12 kts | 149° |
| 2026-05-04 12:20 | 35.75916 | 140.38313 | 144 ft | 13 kts | 149° |
| 2026-05-04 12:20 | 35.75835 | 140.38372 | 144 ft | 14 kts | 149° |
| 2026-05-04 12:21 | 35.75744 | 140.38438 | 144 ft | 18 kts | 149° |
| 2026-05-04 12:21 | 35.75634 | 140.38517 | 144 ft | 18 kts | 149° |
| 2026-05-04 12:21 | 35.75533 | 140.38590 | 144 ft | 16 kts | 149° |
| 2026-05-04 12:21 | 35.75446 | 140.38653 | 144 ft | 13 kts | 149° |
| 2026-05-04 12:22 | 35.75383 | 140.38686 | 144 ft | 9 kts | 173° |
| 2026-05-04 12:22 | 35.75330 | 140.38673 | 144 ft | 7 kts | 198° |
| 2026-05-04 12:22 | 35.75291 | 140.38661 | 144 ft | 5 kts | 187° |
| 2026-05-04 12:22 | 35.75248 | 140.38670 | 144 ft | 8 kts | 159° |
| 2026-05-04 12:23 | 35.75189 | 140.38710 | 144 ft | 10 kts | 149° |
| 2026-05-04 12:23 | 35.75120 | 140.38760 | 145 ft | 14 kts | 149° |
| 2026-05-04 12:23 | 35.75040 | 140.38818 | 145 ft | 12 kts | 149° |
| 2026-05-04 12:23 | 35.74967 | 140.38872 | 145 ft | 12 kts | 149° |
| 2026-05-04 12:24 | 35.74895 | 140.38924 | 145 ft | 12 kts | 149° |
| 2026-05-04 12:24 | 35.74816 | 140.38982 | 145 ft | 13 kts | 149° |
| 2026-05-04 12:24 | 35.74743 | 140.39034 | 145 ft | 11 kts | 149° |
| 2026-05-04 12:24 | 35.74676 | 140.39082 | 144 ft | 11 kts | 150° |
| 2026-05-04 12:25 | 35.74614 | 140.39126 | 144 ft | 10 kts | 150° |
| 2026-05-04 12:25 | 35.74560 | 140.39164 | 144 ft | 8 kts | 150° |
| 2026-05-04 12:25 | 35.74499 | 140.39207 | 144 ft | 12 kts | 150° |
| 2026-05-04 12:25 | 35.74416 | 140.39204 | 143 ft | 16 kts | 223° |
| 2026-05-04 12:26 | 35.74366 | 140.39077 | 142 ft | 16 kts | 279° |
| 2026-05-04 12:26 | 35.74415 | 140.39012 | 142 ft | 0 kts | 328° |
| 2026-05-04 12:27 | 35.74450 | 140.38986 | 142 ft | 29 kts | 329° |
| 2026-05-04 12:27 | 35.74874 | 140.38680 | 146 ft | 109 kts | 329° |
| 2026-05-04 12:28 | 35.75723 | 140.38069 | 147 ft | 170 kts | 329° |
| 2026-05-04 12:28 | 35.76853 | 140.37255 | 497 ft | 192 kts | 330° |
| 2026-05-04 12:28 | 35.78001 | 140.36430 | 1385 ft | 192 kts | 331° |
| 2026-05-04 12:28 | 35.79151 | 140.35590 | 1880 ft | 196 kts | 331° |
| 2026-05-04 12:29 | 35.80377 | 140.34698 | 2033 ft | 213 kts | 332° |
| 2026-05-04 12:29 | 35.81713 | 140.33729 | 2156 ft | 235 kts | 331° |
| 2026-05-04 12:29 | 35.83190 | 140.32663 | 2505 ft | 252 kts | 329° |
| 2026-05-04 12:29 | 35.84706 | 140.31565 | 3276 ft | 252 kts | 329° |
| 2026-05-04 12:30 | 35.86213 | 140.30472 | 4079 ft | 251 kts | 329° |
| 2026-05-04 12:30 | 35.87732 | 140.29371 | 4734 ft | 255 kts | 328° |
| 2026-05-04 12:30 | 35.89275 | 140.28253 | 5317 ft | 260 kts | 328° |
| 2026-05-04 12:30 | 35.90854 | 140.27109 | 5910 ft | 265 kts | 327° |
| 2026-05-04 12:31 | 35.92461 | 140.25944 | 6498 ft | 270 kts | 327° |
| 2026-05-04 12:31 | 35.94097 | 140.24762 | 6918 ft | 275 kts | 327° |
| 2026-05-04 12:31 | 35.95753 | 140.23574 | 6988 ft | 275 kts | 329° |
| 2026-05-04 12:31 | 35.97606 | 140.22946 | 7349 ft | 283 kts | 357° |
| 2026-05-04 12:32 | 35.99525 | 140.23436 | 7968 ft | 292 kts | 23° |
| 2026-05-04 12:32 | 36.02141 | 140.27244 | 9080 ft | 306 kts | 75° |
| 2026-05-04 12:32 | 36.02268 | 140.29873 | 9574 ft | 310 kts | 101° |
| 2026-05-04 12:33 | 36.01513 | 140.32340 | 10043 ft | 306 kts | 127° |
| 2026-05-04 12:33 | 36.00246 | 140.34527 | 10231 ft | 319 kts | 130° |
| 2026-05-04 12:33 | 35.98845 | 140.36761 | 10356 ft | 338 kts | 132° |
| 2026-05-04 12:33 | 35.97370 | 140.39107 | 10486 ft | 356 kts | 132° |
| 2026-05-04 12:34 | 35.95819 | 140.41590 | 10610 ft | 374 kts | 132° |
| 2026-05-04 12:34 | 35.94203 | 140.44163 | 10920 ft | 384 kts | 131° |
| 2026-05-04 12:34 | 35.92584 | 140.46761 | 11448 ft | 388 kts | 132° |
| 2026-05-04 12:34 | 35.90905 | 140.49414 | 11985 ft | 386 kts | 138° |
| 2026-05-04 12:35 | 35.88870 | 140.51417 | 12532 ft | 373 kts | 158° |
| 2026-05-04 12:35 | 35.86455 | 140.52414 | 13049 ft | 361 kts | 179° |
| 2026-05-04 12:35 | 35.83996 | 140.52294 | 13591 ft | 350 kts | 199° |
| 2026-05-04 12:35 | 35.81814 | 140.51099 | 14088 ft | 342 kts | 218° |
| 2026-05-04 12:36 | 35.79958 | 140.49275 | 14653 ft | 339 kts | 222° |
| 2026-05-04 12:36 | 35.78200 | 140.47341 | 15121 ft | 340 kts | 229° |
| 2026-05-04 12:36 | 35.76839 | 140.44980 | 15586 ft | 338 kts | 236° |
| 2026-05-04 12:36 | 35.75574 | 140.42537 | 15997 ft | 340 kts | 237° |
| 2026-05-04 12:37 | 35.74310 | 140.40070 | 16471 ft | 340 kts | 237° |
| 2026-05-04 12:37 | 35.73044 | 140.37613 | 16907 ft | 341 kts | 237° |
| 2026-05-04 12:37 | 35.71770 | 140.35150 | 17362 ft | 340 kts | 237° |
| 2026-05-04 12:37 | 35.70500 | 140.32695 | 17816 ft | 341 kts | 237° |
| 2026-05-04 12:38 | 35.69226 | 140.30233 | 18298 ft | 340 kts | 237° |
| 2026-05-04 12:38 | 35.67963 | 140.27779 | 18691 ft | 339 kts | 237° |
| 2026-05-04 12:38 | 35.66694 | 140.25323 | 19025 ft | 341 kts | 238° |
| 2026-05-04 12:38 | 35.65417 | 140.22869 | 19353 ft | 342 kts | 237° |
| 2026-05-04 12:39 | 35.64123 | 140.20408 | 19682 ft | 342 kts | 237° |
| 2026-05-04 12:39 | 35.62828 | 140.17939 | 19978 ft | 344 kts | 237° |
| 2026-05-04 12:39 | 35.61546 | 140.15452 | 20275 ft | 345 kts | 237° |
| 2026-05-04 12:39 | 35.60267 | 140.12966 | 20583 ft | 345 kts | 238° |
| 2026-05-04 12:40 | 35.58966 | 140.10465 | 20939 ft | 350 kts | 237° |
| 2026-05-04 12:40 | 35.57640 | 140.07937 | 21362 ft | 350 kts | 237° |
| 2026-05-04 12:40 | 35.56328 | 140.05428 | 21730 ft | 350 kts | 237° |
| 2026-05-04 12:40 | 35.55013 | 140.02911 | 22046 ft | 350 kts | 237° |
| 2026-05-04 12:41 | 35.53693 | 140.00386 | 22337 ft | 351 kts | 237° |
| 2026-05-04 12:41 | 35.52390 | 139.97890 | 22618 ft | 352 kts | 237° |
| 2026-05-04 12:41 | 35.51068 | 139.95360 | 22921 ft | 352 kts | 237° |
| 2026-05-04 12:41 | 35.49742 | 139.92827 | 23207 ft | 353 kts | 237° |
| 2026-05-04 12:42 | 35.48415 | 139.90283 | 23461 ft | 354 kts | 238° |
| 2026-05-04 12:42 | 35.47332 | 139.87557 | 23698 ft | 357 kts | 246° |
| 2026-05-04 12:42 | 35.46442 | 139.84705 | 23940 ft | 358 kts | 246° |
| 2026-05-04 12:42 | 35.45552 | 139.81854 | 24188 ft | 358 kts | 246° |
| 2026-05-04 12:43 | 35.44656 | 139.78994 | 24424 ft | 360 kts | 246° |
| 2026-05-04 12:43 | 35.43754 | 139.76130 | 24661 ft | 361 kts | 246° |
| 2026-05-04 12:43 | 35.42847 | 139.73257 | 24889 ft | 361 kts | 246° |
| 2026-05-04 12:43 | 35.41937 | 139.70385 | 25106 ft | 362 kts | 246° |
| 2026-05-04 12:44 | 35.41021 | 139.67503 | 25312 ft | 363 kts | 246° |
| 2026-05-04 12:44 | 35.40102 | 139.64613 | 25510 ft | 365 kts | 246° |
| 2026-05-04 12:44 | 35.39179 | 139.61709 | 25706 ft | 366 kts | 246° |
| 2026-05-04 12:44 | 35.38255 | 139.58799 | 25918 ft | 367 kts | 246° |
| 2026-05-04 12:45 | 35.37328 | 139.55879 | 26111 ft | 368 kts | 246° |
| 2026-05-04 12:45 | 35.36397 | 139.52956 | 26311 ft | 369 kts | 246° |
| 2026-05-04 12:45 | 35.35472 | 139.50056 | 26525 ft | 370 kts | 246° |
| 2026-05-04 12:45 | 35.34677 | 139.47044 | 26734 ft | 375 kts | 253° |
| 2026-05-04 12:46 | 35.34365 | 139.43845 | 26947 ft | 382 kts | 261° |
| 2026-05-04 12:46 | 35.34238 | 139.40772 | 27206 ft | 381 kts | 260° |
| 2026-05-04 12:46 | 35.34101 | 139.37537 | 27494 ft | 380 kts | 260° |
| 2026-05-04 12:46 | 35.33957 | 139.34308 | 27782 ft | 379 kts | 260° |
| 2026-05-04 12:47 | 35.33808 | 139.31084 | 28095 ft | 378 kts | 260° |
| 2026-05-04 12:47 | 35.33655 | 139.27872 | 28398 ft | 376 kts | 260° |
| 2026-05-04 12:47 | 35.33500 | 139.24680 | 28704 ft | 375 kts | 259° |
| 2026-05-04 12:47 | 35.33346 | 139.21496 | 29023 ft | 374 kts | 259° |